Time;durP1;ratioP1;P1;durP2;ratioP2;P2;SDS_P1;SDS_P2;PMS_P1;PMS_P2;Temp;Humidity;BMP_temperature;BMP_pressure;BME280_temperature;BME280_humidity;BME280_pressure;Samples;Min_cycle;Max_cycle;Signal;HPM_P1;HPM_P2
2022/11/09 00:03:05;;;;;;;6.80;5.00;;;21.80;59.30;;;;;;214817;1278;25301;-57
2022/11/09 00:08:12;;;;;;;11.30;5.30;;;21.90;58.80;;;;;;214869;1279;24178;-57
2022/11/09 00:13:30;;;;;;;7.40;5.60;;;21.90;58.90;;;;;;214914;1273;23511;-57
2022/11/09 00:18:38;;;;;;;6.90;5.50;;;21.90;58.80;;;;;;214930;1279;22485;-57
2022/11/09 00:23:45;;;;;;;7.20;5.30;;;21.90;58.80;;;;;;214840;1279;26762;-59
2022/11/09 00:29:08;;;;;;;7.10;5.60;;;21.90;58.80;;;;;;214751;1286;23977;-58
2022/11/09 00:34:13;;;;;;;6.90;5.10;;;21.80;59.10;;;;;;214897;1278;22474;-58
2022/11/09 00:39:17;;;;;;;8.60;5.40;;;21.70;59.30;;;;;;214920;1278;25354;-58
2022/11/09 00:44:21;;;;;;;7.20;5.30;;;21.70;59.50;;;;;;214839;1279;25325;-58
2022/11/09 00:49:25;;;;;;;7.60;5.10;;;21.60;59.70;;;;;;214875;1272;22507;-58
2022/11/09 00:54:29;;;;;;;7.20;4.80;;;21.60;59.80;;;;;;214629;1286;22495;-57
2022/11/09 00:59:33;;;;;;;9.40;5.70;;;21.60;59.80;;;;;;214610;1279;22596;-57
2022/11/09 01:04:37;;;;;;;7.60;5.70;;;21.60;59.80;;;;;;214841;1300;25462;-55
2022/11/09 01:09:41;;;;;;;7.40;5.40;;;21.50;59.90;;;;;;214854;1300;25258;-57
2022/11/09 01:14:44;;;;;;;7.80;5.00;;;21.50;60.00;;;;;;214941;1282;22480;-57
2022/11/09 01:19:51;;;;;;;7.40;5.60;;;21.50;60.10;;;;;;214962;1275;22705;-57
2022/11/09 01:24:58;;;;;;;7.20;5.50;;;21.50;60.80;;;;;;214944;1272;25344;-58
2022/11/09 01:30:02;;;;;;;7.40;5.90;;;21.40;60.30;;;;;;214805;1287;22532;-57
2022/11/09 01:35:07;;;;;;;7.00;5.30;;;21.40;60.30;;;;;;214869;1282;22521;-57
2022/11/09 01:40:12;;;;;;;7.90;5.10;;;21.40;60.40;;;;;;214992;1278;22460;-57
2022/11/09 01:45:23;;;;;;;8.10;5.40;;;21.40;60.10;;;;;;214994;1282;23019;-57
2022/11/09 01:50:36;;;;;;;7.70;5.50;;;21.40;60.60;;;;;;214921;1275;22497;-58
2022/11/09 01:55:44;;;;;;;6.60;5.10;;;21.40;61.10;;;;;;214855;1272;26530;-58
2022/11/09 02:00:50;;;;;;;7.50;5.60;;;21.30;60.70;;;;;;214854;1272;24330;-59
2022/11/09 02:05:54;;;;;;;7.00;5.00;;;21.30;60.70;;;;;;215015;1280;23831;-56
2022/11/09 02:11:11;;;;;;;7.20;5.10;;;21.30;60.90;;;;;;215060;1272;24287;-57
2022/11/09 02:16:17;;;;;;;8.20;5.30;;;21.30;61.00;;;;;;215083;1279;25254;-56
2022/11/09 02:21:23;;;;;;;7.50;5.80;;;21.30;61.10;;;;;;215014;1285;22470;-58
2022/11/09 02:26:44;;;;;;;7.10;5.00;;;21.20;61.50;;;;;;214914;1292;25255;-58
2022/11/09 02:31:53;;;;;;;6.80;4.80;;;21.20;61.40;;;;;;215038;1297;24616;-56
2022/11/09 02:36:57;;;;;;;7.10;5.30;;;21.20;61.30;;;;;;214904;1276;22727;-57
2022/11/09 02:42:09;;;;;;;7.20;5.70;;;21.20;61.80;;;;;;214855;1272;25297;-57
2022/11/09 02:47:48;;;;;;;8.20;5.70;;;21.20;61.40;;;;;;214959;1272;24311;-57
2022/11/09 02:53:11;;;;;;;6.50;5.10;;;21.10;61.40;;;;;;214946;1279;26938;-56
2022/11/09 02:58:34;;;;;;;8.40;5.80;;;21.10;61.50;;;;;;214935;1279;22587;-57
2022/11/09 03:03:45;;;;;;;7.00;5.50;;;21.10;61.60;;;;;;214766;1271;24317;-57
2022/11/09 03:08:49;;;;;;;7.10;4.90;;;21.10;61.50;;;;;;214934;1278;25306;-56
2022/11/09 03:13:53;;;;;;;7.20;5.50;;;21.10;61.50;;;;;;214990;1279;23452;-57
2022/11/09 03:18:58;;;;;;;8.10;5.20;;;21.10;61.60;;;;;;214788;1278;22482;-57
2022/11/09 03:24:02;;;;;;;7.90;6.00;;;21.00;62.00;;;;;;214993;1303;26537;-54
2022/11/09 03:29:08;;;;;;;7.30;5.70;;;21.00;61.80;;;;;;214786;1285;22511;-57
2022/11/09 03:34:12;;;;;;;7.10;5.40;;;21.00;61.80;;;;;;214769;1279;23905;-55
2022/11/09 03:39:15;;;;;;;7.40;5.90;;;20.90;61.80;;;;;;214753;1272;24276;-59
2022/11/09 03:44:20;;;;;;;7.10;5.50;;;20.90;61.90;;;;;;215003;1295;25370;-57
2022/11/09 03:49:23;;;;;;;7.40;5.00;;;20.90;62.10;;;;;;214847;1271;22541;-56
2022/11/09 03:54:27;;;;;;;7.10;5.40;;;21.30;61.30;;;;;;214929;1286;26489;-57
2022/11/09 03:59:31;;;;;;;6.60;5.20;;;21.50;60.30;;;;;;214865;1284;25506;-58
2022/11/09 04:04:34;;;;;;;6.50;5.00;;;21.80;59.80;;;;;;215034;1282;23061;-56
2022/11/09 04:09:38;;;;;;;6.60;5.00;;;21.90;59.30;;;;;;215002;1279;26564;-58
2022/11/09 04:14:42;;;;;;;6.90;5.80;;;22.00;59.00;;;;;;214800;1275;27771;-56
2022/11/09 04:19:47;;;;;;;6.50;5.30;;;22.10;58.80;;;;;;214889;1279;22541;-59
2022/11/09 04:24:51;;;;;;;7.10;5.30;;;22.20;58.70;;;;;;215046;1275;22850;-58
2022/11/09 04:29:55;;;;;;;7.00;5.40;;;22.20;58.80;;;;;;214838;1279;25390;-57
2022/11/09 04:34:59;;;;;;;7.30;5.40;;;22.30;58.40;;;;;;215086;1272;25766;-58
2022/11/09 04:40:03;;;;;;;6.40;5.30;;;22.30;58.40;;;;;;215067;1285;22787;-58
2022/11/09 04:45:08;;;;;;;6.20;5.00;;;22.40;58.40;;;;;;215036;1285;24184;-57
2022/11/09 04:50:13;;;;;;;5.50;4.80;;;22.40;58.60;;;;;;214966;1275;22468;-57
2022/11/09 04:55:17;;;;;;;6.50;5.00;;;22.40;58.30;;;;;;215021;1285;22635;-58
2022/11/09 05:00:21;;;;;;;6.30;4.90;;;22.30;58.60;;;;;;214964;1272;25478;-58
2022/11/09 05:05:25;;;;;;;6.30;4.80;;;22.30;59.30;;;;;;215006;1280;23993;-58
2022/11/09 05:10:31;;;;;;;6.50;4.90;;;22.20;58.70;;;;;;215103;1294;26488;-57
2022/11/09 05:15:36;;;;;;;7.30;5.40;;;22.20;58.80;;;;;;214878;1275;22854;-57
2022/11/09 05:20:40;;;;;;;6.60;4.90;;;22.10;58.80;;;;;;215011;1286;25342;-56
2022/11/09 05:25:44;;;;;;;8.10;5.20;;;22.20;58.90;;;;;;214951;1272;24323;-58
2022/11/09 05:30:48;;;;;;;6.40;4.80;;;22.00;59.10;;;;;;215016;1280;22956;-57
2022/11/09 05:35:55;;;;;;;6.00;4.90;;;22.10;59.10;;;;;;214947;1279;22481;-57
2022/11/09 05:40:58;;;;;;;6.70;5.10;;;22.10;59.20;;;;;;215033;1280;24232;-56
2022/11/09 05:46:03;;;;;;;7.50;5.40;;;22.10;59.20;;;;;;214992;1272;22470;-58
2022/11/09 05:51:11;;;;;;;7.10;4.90;;;22.20;59.20;;;;;;215036;1280;25455;-57
2022/11/09 05:56:15;;;;;;;7.00;5.10;;;22.20;59.10;;;;;;214928;1276;23430;-59
2022/11/09 06:01:18;;;;;;;5.90;4.30;;;22.30;58.90;;;;;;214959;1280;25287;-57
2022/11/09 06:06:25;;;;;;;6.70;5.00;;;22.30;58.70;;;;;;214925;1286;27967;-58
2022/11/09 06:11:29;;;;;;;6.40;5.20;;;22.20;58.90;;;;;;214750;1278;271868;-57
2022/11/09 06:16:33;;;;;;;6.20;4.70;;;22.20;59.20;;;;;;214955;1293;22705;-58
2022/11/09 06:21:36;;;;;;;6.70;5.00;;;22.00;59.30;;;;;;214962;1280;25309;-56
2022/11/09 06:26:40;;;;;;;6.10;4.60;;;22.00;59.50;;;;;;214791;1300;26594;-57
2022/11/09 06:31:45;;;;;;;6.40;4.80;;;21.90;59.60;;;;;;214979;1286;25386;-57
2022/11/09 06:36:49;;;;;;;6.80;5.30;;;21.80;59.90;;;;;;215071;1272;26572;-62
2022/11/09 06:41:52;;;;;;;7.80;5.00;;;21.80;60.30;;;;;;215056;1280;24230;-58
2022/11/09 06:46:56;;;;;;;7.60;4.70;;;21.70;60.40;;;;;;214967;1290;25504;-57
2022/11/09 06:51:59;;;;;;;6.70;5.00;;;21.70;60.60;;;;;;214968;1280;25322;-57
2022/11/09 06:57:04;;;;;;;7.10;5.00;;;21.70;61.40;;;;;;214880;1276;25237;-58
2022/11/09 07:02:15;;;;;;;7.90;5.20;;;21.60;61.40;;;;;;214803;1279;25114;-54
2022/11/09 07:07:18;;;;;;;8.80;5.70;;;21.60;61.40;;;;;;214901;1280;22472;-56
2022/11/09 07:12:32;;;;;;;6.40;5.00;;;21.60;61.40;;;;;;214932;1275;22850;-55
2022/11/09 07:17:38;;;;;;;10.40;5.30;;;21.60;61.60;;;;;;214931;1300;26189;-57
2022/11/09 07:22:42;;;;;;;9.80;5.60;;;21.50;61.60;;;;;;214967;1296;23939;-56
2022/11/09 07:27:46;;;;;;;8.60;6.10;;;21.50;61.50;;;;;;214830;1275;24207;-55
2022/11/09 07:32:49;;;;;;;9.00;6.30;;;21.50;61.40;;;;;;215385;1280;26077;-55
2022/11/09 07:38:12;;;;;;;8.90;6.20;;;21.50;61.40;;;;;;214629;1279;26521;-56
2022/11/09 07:43:17;;;;;;;8.40;6.00;;;21.40;61.30;;;;;;214680;1280;24291;-56
2022/11/09 07:48:25;;;;;;;9.40;5.90;;;21.40;61.20;;;;;;215340;1291;22535;-55
2022/11/09 07:53:29;;;;;;;9.10;6.20;;;21.40;61.50;;;;;;216120;1293;25327;-57
2022/11/09 07:58:34;;;;;;;9.00;6.20;;;21.40;61.10;;;;;;214878;1279;22471;-56
2022/11/09 08:03:38;;;;;;;7.90;5.90;;;21.30;61.10;;;;;;214931;1275;24329;-56
2022/11/09 08:08:48;;;;;;;8.00;6.20;;;21.30;61.00;;;;;;214915;1278;22579;-56
2022/11/09 08:13:55;;;;;;;8.60;6.30;;;21.30;61.10;;;;;;214959;1283;24243;-55
2022/11/09 08:18:59;;;;;;;8.70;6.50;;;21.20;61.10;;;;;;214834;1283;25555;-56
2022/11/09 08:24:04;;;;;;;8.40;6.30;;;21.20;61.10;;;;;;214886;1275;24365;-56
2022/11/09 08:29:08;;;;;;;11.30;6.30;;;21.30;61.30;;;;;;214990;1279;22581;-54
2022/11/09 08:34:13;;;;;;;11.80;6.50;;;21.30;61.20;;;;;;214875;1272;22490;-54
2022/11/09 08:39:21;;;;;;;8.80;6.30;;;21.30;61.50;;;;;;215095;1279;25483;-57
2022/11/09 08:44:25;;;;;;;9.40;6.10;;;21.20;61.70;;;;;;214791;1280;25398;-55
2022/11/09 08:49:29;;;;;;;9.80;6.90;;;21.20;61.70;;;;;;214918;1283;22548;-56
2022/11/09 08:54:37;;;;;;;10.50;6.50;;;21.20;62.10;;;;;;215004;1284;23897;-56
2022/11/09 08:59:43;;;;;;;10.00;6.40;;;21.20;61.20;;;;;;214929;1275;22490;-56
2022/11/09 09:04:51;;;;;;;9.60;6.20;;;21.20;61.50;;;;;;214761;1285;22822;-57
2022/11/09 09:09:59;;;;;;;11.20;6.90;;;21.20;61.70;;;;;;215003;1283;22839;-56
2022/11/09 09:15:07;;;;;;;8.90;6.90;;;21.20;61.70;;;;;;214938;1280;22527;-55
2022/11/09 09:20:11;;;;;;;12.10;6.80;;;21.20;62.10;;;;;;214985;1280;23891;-55
2022/11/09 09:25:20;;;;;;;10.00;6.50;;;21.20;61.70;;;;;;214989;1291;22510;-56
2022/11/09 09:30:25;;;;;;;12.90;7.50;;;21.30;61.40;;;;;;214961;1279;24278;-57
2022/11/09 09:35:29;;;;;;;14.30;7.30;;;21.20;61.70;;;;;;215063;1282;26766;-57
2022/11/09 09:40:56;;;;;;;12.30;7.10;;;21.20;62.00;;;;;;214902;1291;25506;-57
2022/11/09 09:46:11;;;;;;;11.00;6.70;;;21.10;62.40;;;;;;214978;1275;25351;-56
2022/11/09 09:51:31;;;;;;;9.70;7.20;;;21.10;62.20;;;;;;214875;1279;22727;-57
2022/11/09 09:56:39;;;;;;;9.30;6.80;;;21.10;61.90;;;;;;215293;1276;25753;-56
2022/11/09 10:01:48;;;;;;;13.50;7.30;;;21.10;62.40;;;;;;214967;1283;22505;-57
2022/11/09 10:07:35;;;;;;;12.90;7.80;;;21.10;62.50;;;;;;214881;1285;26520;-57
2022/11/09 10:13:03;;;;;;;13.50;8.00;;;21.20;62.30;;;;;;215020;1290;22480;-57
2022/11/09 10:18:19;;;;;;;10.60;8.50;;;21.20;62.00;;;;;;214985;1298;22551;-54
2022/11/09 10:23:51;;;;;;;10.80;7.90;;;21.10;61.80;;;;;;214912;1276;26589;-55
2022/11/09 10:29:00;;;;;;;12.60;8.10;;;21.20;61.80;;;;;;214996;1284;22507;-55
2022/11/09 10:34:37;;;;;;;12.70;8.10;;;21.30;62.40;;;;;;214893;1283;26566;-57
2022/11/09 10:39:57;;;;;;;10.40;7.50;;;21.40;61.70;;;;;;214926;1288;22724;-59
2022/11/09 10:45:32;;;;;;;11.40;7.20;;;21.40;61.60;;;;;;214970;1294;22676;-61
2022/11/09 10:50:55;;;;;;;10.40;8.00;;;21.30;61.90;;;;;;214927;1275;22541;-59
2022/11/09 10:56:19;;;;;;;11.70;7.80;;;21.30;62.60;;;;;;214956;1275;25294;-60
2022/11/09 11:01:43;;;;;;;11.00;7.80;;;21.30;62.70;;;;;;214948;1283;25293;-59
2022/11/09 11:07:13;;;;;;;9.50;7.20;;;21.40;62.70;;;;;;214940;1301;22461;-60
2022/11/09 11:12:45;;;;;;;9.20;7.70;;;21.40;62.70;;;;;;214996;1289;23844;-58
2022/11/09 11:18:23;;;;;;;10.70;8.20;;;21.40;62.70;;;;;;214857;1283;26601;-59
2022/11/09 11:24:17;;;;;;;10.90;7.90;;;21.40;62.80;;;;;;214888;1299;27517;-60
2022/11/09 11:29:54;;;;;;;11.70;7.80;;;21.40;63.40;;;;;;215013;1293;23863;-59
2022/11/09 11:35:26;;;;;;;9.40;7.20;;;21.30;63.30;;;;;;214822;1289;22480;-60
2022/11/09 11:41:02;;;;;;;11.10;7.40;;;21.30;63.70;;;;;;214858;1283;23854;-63
2022/11/09 11:46:46;;;;;;;10.60;7.60;;;21.40;63.40;;;;;;214922;1280;24010;-60
2022/11/09 11:52:19;;;;;;;10.30;7.70;;;21.50;63.10;;;;;;214948;1290;26472;-58
2022/11/09 11:58:15;;;;;;;11.60;7.90;;;21.50;63.50;;;;;;214865;1295;23998;-59
2022/11/09 12:04:04;;;;;;;9.40;7.10;;;21.50;63.10;;;;;;214777;1301;25408;-57
2022/11/09 12:09:32;;;;;;;12.80;7.60;;;21.50;63.10;;;;;;214721;1284;25415;-57
2022/11/09 12:15:33;;;;;;;8.50;6.80;;;21.50;63.20;;;;;;214918;1299;23886;-59
2022/11/09 12:21:15;;;;;;;10.80;7.50;;;21.60;62.90;;;;;;214804;1283;24367;-58
2022/11/09 12:27:18;;;;;;;10.50;7.70;;;21.70;62.90;;;;;;214837;1292;23854;-58
2022/11/09 12:33:01;;;;;;;11.30;7.60;;;21.70;62.80;;;;;;214979;1283;22485;-59
2022/11/09 12:38:51;;;;;;;10.50;7.90;;;21.80;62.90;;;;;;214931;1280;22687;-58
2022/11/09 12:44:23;;;;;;;11.90;7.50;;;21.90;62.70;;;;;;214826;1278;25354;-60
2022/11/09 12:49:47;;;;;;;9.80;7.20;;;21.90;62.60;;;;;;214881;1280;24195;-58
2022/11/09 12:55:18;;;;;;;10.20;7.40;;;21.90;62.60;;;;;;214822;1283;24005;-59
2022/11/09 13:00:43;;;;;;;8.80;7.50;;;22.00;62.60;;;;;;214918;1286;23835;-58
2022/11/09 13:06:22;;;;;;;10.60;7.80;;;22.00;62.60;;;;;;215029;1286;25454;-58
2022/11/09 13:11:48;;;;;;;10.30;8.30;;;22.10;62.50;;;;;;214907;1286;23310;-56
2022/11/09 13:17:19;;;;;;;10.80;8.20;;;22.10;62.40;;;;;;214882;1279;25381;-57
2022/11/09 13:22:42;;;;;;;10.40;8.10;;;22.10;62.40;;;;;;214910;1276;26487;-58
2022/11/09 13:28:27;;;;;;;8.00;7.10;;;22.00;62.50;;;;;;214789;1289;25380;-58
2022/11/09 13:34:28;;;;;;;10.70;7.90;;;22.00;62.50;;;;;;214890;1300;25385;-57
2022/11/09 13:39:51;;;;;;;;;;;22.00;62.60;;;;;;214901;1286;24202;-58
2022/11/09 13:45:45;;;;;;;9.60;7.90;;;21.90;62.60;;;;;;214898;1280;25451;-57
2022/11/09 13:51:11;;;;;;;11.60;7.60;;;21.80;62.90;;;;;;214973;1280;25392;-57
2022/11/09 13:56:38;;;;;;;10.70;7.70;;;21.70;63.00;;;;;;214849;1283;25466;-58
2022/11/09 14:02:03;;;;;;;10.20;7.70;;;21.70;63.10;;;;;;215028;1279;26491;-58
2022/11/09 14:07:34;;;;;;;9.90;8.20;;;21.60;63.40;;;;;;214830;1286;22564;-57
2022/11/09 14:13:22;;;;;;;10.90;7.50;;;21.60;63.90;;;;;;214982;1280;26456;-57
2022/11/09 14:19:02;;;;;;;10.30;8.10;;;21.60;64.10;;;;;;214844;1283;25382;-56
2022/11/09 14:24:31;;;;;;;10.00;7.90;;;21.50;64.00;;;;;;214833;1277;22471;-57
2022/11/09 14:30:01;;;;;;;10.60;7.50;;;21.50;63.90;;;;;;214887;1279;26554;-57
2022/11/09 14:35:35;;;;;;;9.60;7.90;;;21.40;64.30;;;;;;214863;1280;25497;-57
2022/11/09 14:40:58;;;;;;;10.50;8.30;;;21.40;64.10;;;;;;214817;1286;22521;-55
2022/11/09 14:46:29;;;;;;;10.40;8.20;;;21.40;64.40;;;;;;214836;1280;22702;-57
2022/11/09 14:51:53;;;;;;;11.60;8.00;;;21.30;64.40;;;;;;214811;1300;23837;-58
2022/11/09 14:57:16;;;;;;;10.10;8.20;;;21.30;64.40;;;;;;214696;1286;26748;-57
2022/11/09 15:02:38;;;;;;;11.70;8.40;;;21.30;64.30;;;;;;214795;1280;25260;-56
2022/11/09 15:08:01;;;;;;;10.60;8.20;;;21.30;64.40;;;;;;214745;1272;25435;-56
2022/11/09 15:13:31;;;;;;;11.50;8.40;;;21.30;64.40;;;;;;214674;1279;23208;-58
2022/11/09 15:18:53;;;;;;;10.60;8.40;;;21.20;64.20;;;;;;214918;1280;23845;-58
2022/11/09 15:24:17;;;;;;;10.50;8.00;;;21.30;64.30;;;;;;214987;1279;25293;-57
2022/11/09 15:29:42;;;;;;;13.00;9.40;;;21.30;64.10;;;;;;215015;1286;25320;-58
2022/11/09 15:35:14;;;;;;;10.60;8.00;;;21.20;63.90;;;;;;214991;1272;24256;-58
2022/11/09 15:40:37;;;;;;;11.70;8.70;;;21.20;63.80;;;;;;215029;1280;24338;-57
2022/11/09 15:46:00;;;;;;;12.40;9.10;;;21.20;63.60;;;;;;214908;1280;25536;-58
2022/11/09 15:51:23;;;;;;;11.50;8.00;;;21.10;63.80;;;;;;214948;1287;23845;-58
2022/11/09 15:56:47;;;;;;;11.20;8.40;;;21.20;63.80;;;;;;214804;1272;25855;-57
2022/11/09 16:02:10;;;;;;;13.70;8.80;;;21.10;64.00;;;;;;214939;1280;25382;-57
2022/11/09 16:07:36;;;;;;;11.70;9.10;;;21.10;64.10;;;;;;214935;1275;25568;-57
2022/11/09 16:12:58;;;;;;;13.50;9.20;;;21.10;63.90;;;;;;214882;1276;22459;-58
2022/11/09 16:18:26;;;;;;;13.00;9.40;;;21.10;63.80;;;;;;214813;1276;22480;-58
2022/11/09 16:23:50;;;;;;;13.90;10.20;;;21.10;63.80;;;;;;215030;1289;22493;-58
2022/11/09 16:29:26;;;;;;;14.10;9.80;;;21.00;63.60;;;;;;215043;1272;24234;-57
2022/11/09 16:34:50;;;;;;;15.80;9.80;;;21.00;63.40;;;;;;214913;1279;25432;-58
2022/11/09 16:40:37;;;;;;;13.00;9.50;;;21.00;63.20;;;;;;215037;1275;24199;-57
2022/11/09 16:46:01;;;;;;;13.70;9.80;;;21.00;63.10;;;;;;215131;1278;25427;-58
2022/11/09 16:51:29;;;;;;;13.80;9.80;;;21.00;62.80;;;;;;215013;1279;23882;-57
2022/11/09 16:56:54;;;;;;;16.00;9.70;;;20.90;62.80;;;;;;214818;1280;24327;-57
2022/11/09 17:02:22;;;;;;;14.80;10.20;;;20.90;62.60;;;;;;214806;1279;26216;-58
2022/11/09 17:07:47;;;;;;;14.40;10.80;;;20.90;62.50;;;;;;215046;1280;25437;-58
2022/11/09 17:13:12;;;;;;;16.30;11.30;;;21.00;62.20;;;;;;214922;1282;22630;-58
2022/11/09 17:18:36;;;;;;;16.20;11.00;;;20.90;62.00;;;;;;214833;1286;22520;-58
2022/11/09 17:24:07;;;;;;;15.50;10.70;;;20.90;62.60;;;;;;215042;1286;24104;-58
2022/11/09 17:29:36;;;;;;;19.50;11.30;;;21.00;64.20;;;;;;214745;1272;22940;-56
2022/11/09 17:35:01;;;;;;;20.80;11.60;;;20.90;64.70;;;;;;214915;1278;22467;-56
2022/11/09 17:40:23;;;;;;;17.30;11.00;;;20.90;65.80;;;;;;214876;1300;25341;-57
2022/11/09 17:45:47;;;;;;;17.30;10.70;;;20.90;66.30;;;;;;214898;1276;25215;-57
2022/11/09 17:51:10;;;;;;;17.20;12.10;;;20.90;66.00;;;;;;214846;1287;26659;-57
2022/11/09 17:56:34;;;;;;;17.50;10.90;;;20.90;65.80;;;;;;214576;1278;26205;-57
2022/11/09 18:01:56;;;;;;;22.80;11.70;;;20.90;65.80;;;;;;214698;1286;23837;-58
2022/11/09 18:07:18;;;;;;;15.10;9.70;;;20.90;65.40;;;;;;214916;1279;24216;-58
2022/11/09 18:12:41;;;;;;;18.10;11.20;;;20.90;65.40;;;;;;214810;1300;169515;-56
2022/11/09 18:18:05;;;;;;;13.60;9.90;;;20.80;65.30;;;;;;214912;1272;26698;-56
2022/11/09 18:23:28;;;;;;;15.10;10.20;;;20.80;65.20;;;;;;214969;1278;24322;-55
2022/11/09 18:28:51;;;;;;;18.00;10.20;;;20.90;65.10;;;;;;214809;1280;25255;-57
2022/11/09 18:34:17;;;;;;;15.60;10.00;;;20.80;65.20;;;;;;214977;1272;22490;-57
2022/11/09 18:39:44;;;;;;;15.00;10.70;;;20.80;65.10;;;;;;214938;1284;24237;-56
2022/11/09 18:45:08;;;;;;;15.60;10.50;;;20.80;65.00;;;;;;214803;1280;25377;-57
2022/11/09 18:50:30;;;;;;;14.50;10.40;;;20.70;65.00;;;;;;214633;1286;25360;-56
2022/11/09 18:56:09;;;;;;;15.80;11.30;;;20.80;65.00;;;;;;214694;1295;26506;-56
2022/11/09 19:01:31;;;;;;;16.70;11.00;;;20.70;64.90;;;;;;214685;1279;25307;-57
2022/11/09 19:06:54;;;;;;;15.00;10.50;;;20.70;64.90;;;;;;214550;1272;22519;-57
2022/11/09 19:12:16;;;;;;;16.90;10.80;;;20.70;64.80;;;;;;214819;1279;22725;-57
2022/11/09 19:17:43;;;;;;;17.20;10.70;;;20.70;64.90;;;;;;215085;1279;24277;-58
2022/11/09 19:23:12;;;;;;;16.00;11.70;;;20.70;64.80;;;;;;214813;1286;25245;-56
2022/11/09 19:28:37;;;;;;;14.50;10.80;;;20.80;64.60;;;;;;214930;1286;24337;-57
2022/11/09 19:34:08;;;;;;;15.00;10.40;;;20.80;64.40;;;;;;214943;1286;25284;-58
2022/11/09 19:39:30;;;;;;;13.90;10.10;;;20.80;64.40;;;;;;215366;1286;25290;-56
2022/11/09 19:45:01;;;;;;;16.60;10.30;;;20.80;64.30;;;;;;214798;1279;23883;-55
2022/11/09 19:50:29;;;;;;;15.20;11.10;;;20.70;64.50;;;;;;214966;1279;25287;-56
2022/11/09 19:56:11;;;;;;;14.40;10.80;;;20.60;64.70;;;;;;214482;1281;24257;-57
2022/11/09 20:01:36;;;;;;;16.50;11.20;;;20.60;64.60;;;;;;214475;1290;26493;-52
2022/11/09 20:07:03;;;;;;;16.70;11.00;;;20.90;64.40;;;;;;214419;1277;23017;-58
2022/11/09 20:18:15;;;;;;;17.90;11.70;;;21.50;62.00;;;;;;214417;1278;24400;-54
2022/11/09 20:23:39;;;;;;;20.00;11.50;;;21.70;61.20;;;;;;214477;1275;26482;-55
2022/11/09 20:29:02;;;;;;;19.10;11.40;;;21.90;61.10;;;;;;214810;1272;22463;-54
2022/11/09 20:34:28;;;;;;;16.40;10.80;;;22.00;63.20;;;;;;214817;1279;23849;-55
2022/11/09 20:39:52;;;;;;;14.00;11.20;;;22.30;63.20;;;;;;214846;1277;22564;-55
2022/11/09 20:45:19;;;;;;;17.20;11.20;;;22.40;63.00;;;;;;214876;1279;24314;-55
2022/11/09 20:50:50;;;;;;;18.40;11.40;;;22.50;62.20;;;;;;214918;1276;25313;-56
2022/11/09 20:56:17;;;;;;;19.40;12.40;;;22.60;61.70;;;;;;214762;1272;25062;-56
2022/11/09 21:01:41;;;;;;;18.10;11.90;;;22.50;61.50;;;;;;215187;1285;22484;-56
2022/11/09 21:07:09;;;;;;;17.80;11.70;;;22.50;61.70;;;;;;214873;1278;24260;-56
2022/11/09 21:12:43;;;;;;;17.10;11.30;;;22.40;62.20;;;;;;215050;1278;23841;-56
2022/11/09 21:18:11;;;;;;;16.40;10.60;;;22.40;62.50;;;;;;214766;1280;24002;-56
2022/11/09 21:35:04;;;;;;;17.20;11.60;;;22.30;62.80;;;;;;214755;1272;24321;-57
2022/11/09 21:40:32;;;;;;;17.60;12.10;;;22.20;62.90;;;;;;214679;1294;24369;-56
2022/11/09 21:46:01;;;;;;;14.90;10.60;;;22.10;63.20;;;;;;214943;1296;25322;-55
2022/11/09 21:51:28;;;;;;;16.70;10.60;;;22.10;63.10;;;;;;214791;1279;25318;-56
2022/11/09 21:56:56;;;;;;;14.80;10.80;;;22.00;63.30;;;;;;214657;1281;24253;-57
2022/11/09 22:02:22;;;;;;;16.80;10.70;;;22.00;63.60;;;;;;214746;1280;26492;-56
2022/11/09 22:07:45;;;;;;;15.00;10.70;;;21.90;63.70;;;;;;214780;1279;23844;-56
2022/11/09 22:24:37;;;;;;;12.90;10.30;;;21.70;64.30;;;;;;214794;1280;22471;-56
2022/11/09 22:30:01;;;;;;;13.20;9.70;;;21.60;64.30;;;;;;214770;1278;24031;-56
2022/11/09 22:35:23;;;;;;;15.10;9.50;;;21.60;64.50;;;;;;214736;1277;24264;-57
2022/11/09 22:40:46;;;;;;;14.90;10.90;;;21.50;64.60;;;;;;214885;1289;24190;-57
2022/11/09 22:46:16;;;;;;;13.10;9.70;;;21.50;64.80;;;;;;214824;1279;25333;-56
2022/11/09 22:51:38;;;;;;;15.60;10.00;;;21.40;64.80;;;;;;214785;1279;25339;-56
2022/11/09 22:57:01;;;;;;;13.30;9.70;;;21.40;64.90;;;;;;214784;1285;25305;-55
2022/11/09 23:02:25;;;;;;;13.10;9.30;;;21.40;65.00;;;;;;214821;1286;25495;-56
2022/11/09 23:07:48;;;;;;;13.10;9.20;;;21.40;65.10;;;;;;214798;1286;25361;-56
2022/11/09 23:13:10;;;;;;;12.70;9.70;;;21.30;65.00;;;;;;214744;1272;22476;-55
2022/11/09 23:29:58;;;;;;;13.20;9.30;;;21.30;65.20;;;;;;215362;1272;22477;-55
2022/11/09 23:35:20;;;;;;;19.30;9.40;;;21.30;65.10;;;;;;214973;1275;26515;-56
2022/11/09 23:40:42;;;;;;;14.10;10.20;;;21.30;65.20;;;;;;214867;1286;26204;-56
2022/11/09 23:46:12;;;;;;;14.90;8.90;;;21.20;65.50;;;;;;214748;1277;23529;-56
2022/11/09 23:51:34;;;;;;;14.20;9.00;;;21.30;66.10;;;;;;214953;1296;25330;-56
2022/11/09 23:56:59;;;;;;;13.00;9.40;;;21.20;66.10;;;;;;214973;1279;25253;-57
